createdAt,value
2016-12-24T00:00:39.461Z,4.21
2016-12-24T00:01:49.473Z,4.28
2016-12-24T00:02:59.506Z,4.15
2016-12-24T00:04:09.843Z,4.15
2016-12-24T00:05:19.865Z,4.24
2016-12-24T00:06:30.207Z,4.17
2016-12-24T00:07:40.567Z,4.21
2016-12-24T00:08:50.275Z,4.29
2016-12-24T00:10:00.620Z,4.18
2016-12-24T00:11:10.979Z,4.18
2016-12-24T00:12:21.014Z,4.28
2016-12-24T00:13:31.030Z,4.21
2016-12-24T00:14:41.368Z,4.28
2016-12-24T00:15:51.084Z,4.22
2016-12-24T00:17:01.415Z,4.24
2016-12-24T00:18:11.419Z,4.22
2016-12-24T00:19:21.745Z,4.3
2016-12-24T00:20:31.450Z,4.29
2016-12-24T00:21:41.780Z,4.22
2016-12-24T00:22:52.144Z,4.32
2016-12-24T00:24:01.867Z,4.47
2016-12-24T00:25:12.194Z,4.4
2016-12-24T00:26:22.209Z,4.28
2016-12-24T00:27:32.518Z,4.36
2016-12-24T00:28:42.852Z,4.38
2016-12-24T00:29:52.881Z,4.5
2016-12-24T00:31:02.890Z,4.5
2016-12-24T00:32:12.901Z,4.47
2016-12-24T00:33:23.233Z,4.57
2016-12-24T00:34:32.927Z,4.44
2016-12-24T00:35:43.255Z,4.48
2016-12-24T00:36:53.265Z,4.5
2016-12-24T00:38:03.621Z,4.5
2016-12-24T00:39:13.653Z,4.54
2016-12-24T00:40:23.678Z,4.51
2016-12-24T00:41:33.715Z,4.51
2016-12-24T00:42:44.071Z,4.46
2016-12-24T00:43:53.770Z,4.51
2016-12-24T00:45:03.788Z,4.53
2016-12-24T00:46:13.788Z,4.44
2016-12-24T00:47:23.805Z,4.53
2016-12-24T00:48:33.831Z,4.53
2016-12-24T00:49:43.538Z,4.64
2016-12-24T00:50:53.246Z,4.47
2016-12-24T00:52:03.260Z,4.53
2016-12-24T00:53:13.289Z,4.57
2016-12-24T00:54:23.302Z,4.61
2016-12-24T00:55:33.317Z,4.6
2016-12-24T00:56:43.332Z,4.6
2016-12-24T00:57:53.651Z,4.57
2016-12-24T00:59:03.662Z,4.64
2016-12-24T01:00:13.938Z,4.57
2016-12-24T01:01:23.966Z,4.51
2016-12-24T01:02:33.987Z,4.6
2016-12-24T01:03:43.694Z,4.51
2016-12-24T01:04:53.702Z,4.56
2016-12-24T01:06:03.704Z,4.51
2016-12-24T01:07:13.718Z,4.51
2016-12-24T01:08:23.729Z,4.51
2016-12-24T01:09:33.431Z,4.46
2016-12-24T01:10:43.433Z,4.5
2016-12-24T01:11:53.129Z,4.54
2016-12-24T01:13:02.852Z,4.54
2016-12-24T01:14:13.181Z,4.44
2016-12-24T01:15:23.195Z,4.33
2016-12-24T01:16:33.517Z,4.48
2016-12-24T01:17:43.526Z,4.38
2016-12-24T01:18:53.851Z,4.38
2016-12-24T01:20:03.862Z,4.48
2016-12-24T01:21:13.874Z,4.42
2016-12-24T01:22:23.571Z,4.32
2016-12-24T01:23:33.919Z,4.35
2016-12-24T01:24:43.928Z,4.12
2016-12-24T01:25:53.941Z,4.17
2016-12-24T01:27:03.955Z,4.32
2016-12-24T01:28:14.271Z,4.15
2016-12-24T01:29:24.301Z,4.15
2016-12-24T01:30:34.632Z,4.18
2016-12-24T01:31:44.958Z,4.15
2016-12-24T01:32:55.316Z,4.18
2016-12-24T01:34:05.622Z,4.14
2016-12-24T01:35:15.940Z,4.17
2016-12-24T01:36:26.262Z,4.17
2016-12-24T01:37:36.590Z,4.15
2016-12-24T01:38:46.916Z,4.14
2016-12-24T01:39:57.231Z,4.15
2016-12-24T01:41:07.282Z,4.15
2016-12-24T01:42:17.285Z,4.17
2016-12-24T01:43:27.621Z,4.11
2016-12-24T01:44:37.943Z,4.14
2016-12-24T01:45:47.644Z,4.1
2016-12-24T01:46:57.970Z,4.12
2016-12-24T01:48:07.658Z,4.08
2016-12-24T01:49:17.989Z,4.08
2016-12-24T01:50:28.336Z,4.03
2016-12-24T01:51:38.657Z,4.1
2016-12-24T01:52:48.670Z,4.07
2016-12-24T01:53:58.989Z,4.04
2016-12-24T01:55:09.303Z,4.1
2016-12-24T01:56:18.695Z,4.12
2016-12-24T01:57:29.018Z,4.15
2016-12-24T01:58:39.348Z,4.2
2016-12-24T01:59:49.359Z,4.17
2016-12-24T02:00:59.696Z,4.17
2016-12-24T02:02:09.396Z,4.04
2016-12-24T02:03:19.408Z,4.08
2016-12-24T02:04:29.743Z,4.1
2016-12-24T02:05:40.092Z,4.17
2016-12-24T02:06:50.104Z,4.07
2016-12-24T02:08:00.116Z,4.14
2016-12-24T02:09:09.821Z,4.14
2016-12-24T02:10:19.843Z,4.15
2016-12-24T02:11:29.535Z,4.14
2016-12-24T02:12:39.856Z,4.22
2016-12-24T02:13:49.548Z,4.12
2016-12-24T02:14:58.939Z,4.18
2016-12-24T02:16:09.270Z,4.22
2016-12-24T02:17:19.592Z,4.15
2016-12-24T02:18:29.597Z,4.17
2016-12-24T02:19:39.939Z,4.15
2016-12-24T02:20:49.937Z,4.28
2016-12-24T02:22:00.309Z,4.14
2016-12-24T02:23:10.642Z,4.14
2016-12-24T02:24:20.654Z,4.08
2016-12-24T02:25:30.979Z,4.07
2016-12-24T02:26:40.987Z,4.1
2016-12-24T02:27:50.993Z,4.1
2016-12-24T02:29:00.696Z,4.1
2016-12-24T02:30:10.681Z,4.08
2016-12-24T02:31:20.684Z,4.1
2016-12-24T02:32:31.041Z,4.11
2016-12-24T02:33:41.056Z,4.11
2016-12-24T02:34:51.372Z,4.07
2016-12-24T02:36:01.410Z,4.12
2016-12-24T02:37:10.796Z,4.11
2016-12-24T02:38:21.114Z,4.1
2016-12-24T02:39:31.436Z,4.1
2016-12-24T02:40:41.996Z,4.2
2016-12-24T02:41:52.315Z,4.15
2016-12-24T02:43:02.647Z,4.21
2016-12-24T02:44:12.041Z,4.24
2016-12-24T02:45:22.354Z,4.14
2016-12-24T02:46:32.676Z,4.22
2016-12-24T02:47:42.680Z,4.24
2016-12-24T02:48:53.007Z,4.21
2016-12-24T02:50:02.739Z,4.12
2016-12-24T02:51:12.746Z,4.18
2016-12-24T02:52:23.059Z,4.24
2016-12-24T02:53:32.747Z,4.17
2016-12-24T02:54:43.058Z,4.18
2016-12-24T02:55:53.058Z,4.24
2016-12-24T02:57:02.759Z,4.3
2016-12-24T02:58:12.780Z,4.17
2016-12-24T02:59:22.803Z,4.2
2016-12-24T03:00:32.821Z,4.22
2016-12-24T03:01:43.157Z,4.24
2016-12-24T03:33:15.924Z,1.15
2016-12-24T03:34:25.914Z,1.02
2016-12-24T03:35:35.291Z,0.99
2016-12-24T03:36:45.302Z,1.18
2016-12-24T03:37:55.291Z,1.2
2016-12-24T03:39:04.697Z,1.3
2016-12-24T03:40:14.698Z,1.46
2016-12-24T03:41:24.702Z,1.65
2016-12-24T03:42:35.034Z,1.66
2016-12-24T03:43:45.365Z,1.79
2016-12-24T03:44:55.380Z,2.04
2016-12-24T03:46:05.684Z,2.13
2016-12-24T03:47:15.997Z,2.31
2016-12-24T03:48:26.315Z,2.41
2016-12-24T03:49:36.652Z,2.58
2016-12-24T03:50:46.958Z,2.72
2016-12-24T03:51:56.959Z,2.83
2016-12-24T03:53:07.278Z,2.83
2016-12-24T03:54:17.286Z,2.99
2016-12-24T03:55:27.290Z,3.11
2016-12-24T03:56:37.299Z,3.24
2016-12-24T03:57:47.608Z,3.3
2016-12-24T03:58:57.299Z,3.32
2016-12-24T04:00:07.333Z,3.42
2016-12-24T04:01:17.024Z,3.42
2016-12-24T04:02:27.347Z,3.54
2016-12-24T04:03:37.363Z,3.53
2016-12-24T04:04:47.361Z,3.54
2016-12-24T04:05:57.697Z,3.69
2016-12-24T04:07:07.389Z,3.71
2016-12-24T04:08:17.699Z,3.72
2016-12-24T04:09:28.012Z,3.84
2016-12-24T04:10:38.030Z,3.85
2016-12-24T04:11:48.352Z,3.89
2016-12-24T04:12:58.388Z,3.92
2016-12-24T04:14:08.418Z,3.85
2016-12-24T04:15:18.774Z,3.84
2016-12-24T04:16:28.777Z,3.84
2016-12-24T04:17:39.094Z,3.92
2016-12-24T04:18:49.111Z,3.94
2016-12-24T04:19:59.442Z,3.99
2016-12-24T04:21:09.131Z,3.97
2016-12-24T04:22:19.464Z,4.04
2016-12-24T04:23:29.816Z,4.17
2016-12-24T04:24:40.139Z,4.15
2016-12-24T04:25:50.691Z,4.15
2016-12-24T04:27:00.709Z,4.21
2016-12-24T04:28:10.713Z,4.2
2016-12-24T04:29:21.030Z,4.21
2016-12-24T04:30:31.044Z,4.24
2016-12-24T04:31:41.360Z,4.08
2016-12-24T04:32:51.680Z,4.15
2016-12-24T04:34:01.678Z,4.14
2016-12-24T04:35:12.018Z,4.11
2016-12-24T04:36:22.021Z,4.07
2016-12-24T04:37:32.027Z,4.04
2016-12-24T04:38:42.348Z,4.08
2016-12-24T04:39:52.656Z,4.1
2016-12-24T04:41:02.359Z,4.1
2016-12-24T04:42:12.670Z,4.11
2016-12-24T04:43:22.677Z,4.08
2016-12-24T04:44:32.071Z,4.15
2016-12-24T04:45:41.799Z,4.12
2016-12-24T04:46:52.123Z,4.14
2016-12-24T04:48:02.458Z,4.28
2016-12-24T04:49:12.145Z,4.17
2016-12-24T04:50:21.841Z,4.28
2016-12-24T04:51:32.154Z,4.3
2016-12-24T04:52:42.479Z,4.28
2016-12-24T04:53:52.512Z,4.32
2016-12-24T04:55:02.526Z,4.14
2016-12-24T04:56:12.861Z,4.17
2016-12-24T04:57:23.197Z,4.22
2016-12-24T04:58:32.929Z,4.22
2016-12-24T04:59:42.630Z,4.15
2016-12-24T05:00:52.640Z,4.14
2016-12-24T05:02:02.683Z,4.1
2016-12-24T05:03:12.066Z,4.03
2016-12-24T05:04:22.067Z,4.1
2016-12-24T05:05:32.390Z,4.08
2016-12-24T05:06:42.401Z,4.07
2016-12-24T05:07:52.708Z,4.02
2016-12-24T05:09:02.728Z,4.07
2016-12-24T05:10:12.745Z,4.08
2016-12-24T05:11:22.779Z,4.17
2016-12-24T05:12:32.794Z,4.18
2016-12-24T05:13:42.803Z,4.12
2016-12-24T05:14:53.128Z,4.17
2016-12-24T05:16:03.445Z,4.17
2016-12-24T05:17:13.768Z,4.2
2016-12-24T05:18:24.093Z,4.22
2016-12-24T05:19:33.790Z,4.15
2016-12-24T05:20:43.487Z,4.22
2016-12-24T05:21:53.801Z,4.12
2016-12-24T05:23:04.110Z,4.12
2016-12-24T05:24:13.807Z,4.22
2016-12-24T05:25:23.543Z,4.24
2016-12-24T05:26:33.867Z,4.21
2016-12-24T05:27:43.872Z,4.2
2016-12-24T05:28:54.223Z,4.15
2016-12-24T05:30:04.550Z,4.14
2016-12-24T05:31:14.876Z,4.29
2016-12-24T05:32:24.879Z,4.28
2016-12-24T05:33:34.887Z,4.21
2016-12-24T05:34:45.232Z,4.14
2016-12-24T05:35:55.555Z,4.18
2016-12-24T05:37:05.875Z,4.3
2016-12-24T05:38:15.259Z,4.2
2016-12-24T05:39:25.269Z,4.32
2016-12-24T05:40:35.335Z,4.26
2016-12-24T05:41:45.338Z,4.35
2016-12-24T05:42:55.655Z,4.36
2016-12-24T05:44:06.006Z,4.32
2016-12-24T05:45:15.703Z,4.46
2016-12-24T05:46:25.999Z,4.42
2016-12-24T05:47:36.027Z,4.47
2016-12-24T05:48:46.037Z,4.48
2016-12-24T05:49:56.354Z,4.51
2016-12-24T05:51:06.056Z,4.44
2016-12-24T05:52:15.754Z,4.51
2016-12-24T05:53:26.064Z,4.44
2016-12-24T05:54:35.766Z,4.47
2016-12-24T05:55:45.149Z,4.32
2016-12-24T05:56:55.161Z,4.44
2016-12-24T05:58:05.481Z,4.39
2016-12-24T05:59:15.498Z,4.38
2016-12-24T06:00:25.500Z,4.4
2016-12-24T06:01:35.821Z,4.48
2016-12-24T06:02:46.135Z,4.47
2016-12-24T06:03:56.460Z,4.51
2016-12-24T06:05:06.783Z,4.46
2016-12-24T06:06:16.799Z,4.48
2016-12-24T06:07:27.122Z,4.54
2016-12-24T06:08:37.138Z,4.47
2016-12-24T06:09:47.483Z,4.46
2016-12-24T06:10:57.830Z,4.47
2016-12-24T06:12:08.149Z,4.51
2016-12-24T06:13:18.160Z,4.35
2016-12-24T06:14:28.506Z,4.36
2016-12-24T06:15:38.833Z,4.35
2016-12-24T06:16:49.170Z,4.36
2016-12-24T06:17:59.175Z,4.39
2016-12-24T06:19:09.488Z,4.44
2016-12-24T06:20:19.804Z,4.38
2016-12-24T06:21:29.813Z,4.32
2016-12-24T06:22:40.142Z,4.36
2016-12-24T06:23:50.456Z,4.51
2016-12-24T06:25:00.475Z,4.38
2016-12-24T06:26:10.474Z,4.47
2016-12-24T06:27:20.171Z,4.42
2016-12-24T06:28:30.216Z,4.42
2016-12-24T06:29:40.222Z,4.33
2016-12-24T06:30:49.906Z,4.4
2016-12-24T06:31:59.611Z,4.44
2016-12-24T06:33:09.619Z,4.58
2016-12-24T06:34:19.622Z,4.35
2016-12-24T06:35:29.956Z,4.42
2016-12-24T06:36:39.654Z,4.38
2016-12-24T06:37:49.671Z,4.47
2016-12-24T06:38:59.988Z,4.58
2016-12-24T06:40:09.685Z,4.54
2016-12-24T06:41:19.691Z,4.53
2016-12-24T06:42:30.007Z,4.5
2016-12-24T06:43:40.321Z,4.54
2016-12-24T06:44:50.646Z,4.53
2016-12-24T06:46:00.651Z,4.51
2016-12-24T06:47:10.043Z,4.38
2016-12-24T06:48:20.372Z,4.39
2016-12-24T06:49:30.697Z,4.48
2016-12-24T06:50:41.019Z,4.51
2016-12-24T06:51:51.396Z,4.46
2016-12-24T06:53:01.823Z,4.46
2016-12-24T06:54:12.143Z,4.51
2016-12-24T06:55:21.840Z,4.5
2016-12-24T06:56:32.171Z,4.47
2016-12-24T06:57:42.225Z,4.5
2016-12-24T06:58:51.921Z,4.5
2016-12-24T07:00:01.930Z,4.46
2016-12-24T07:01:12.249Z,4.5
2016-12-24T07:02:21.626Z,4.48
2016-12-24T07:03:31.945Z,4.51
2016-12-24T07:04:41.644Z,4.53
2016-12-24T07:05:51.702Z,4.56
2016-12-24T07:07:01.713Z,4.6
2016-12-24T07:08:11.728Z,4.68
2016-12-24T07:09:21.743Z,4.71
2016-12-24T07:10:31.984Z,4.68
2016-12-24T07:11:42.291Z,4.71
2016-12-24T07:12:51.686Z,4.72
2016-12-24T07:14:01.392Z,4.72
2016-12-24T07:15:11.702Z,4.72
2016-12-24T07:16:22.036Z,4.71
2016-12-24T07:17:32.052Z,4.68
2016-12-24T07:18:42.069Z,4.74
2016-12-24T07:19:52.420Z,4.66
2016-12-24T07:21:02.423Z,4.57
2016-12-24T07:22:12.741Z,4.58
2016-12-24T07:23:23.061Z,4.61
2016-12-24T07:24:33.392Z,4.65
2016-12-24T07:25:43.099Z,4.66
2016-12-24T07:26:52.797Z,4.61
2016-12-24T07:28:02.487Z,4.71
2016-12-24T07:29:12.820Z,4.69
2016-12-24T07:30:23.165Z,4.69
2016-12-24T07:31:33.169Z,4.72
2016-12-24T07:32:43.183Z,4.68
2016-12-24T07:33:53.496Z,4.75
2016-12-24T07:35:03.503Z,4.69
2016-12-24T07:36:13.515Z,4.75
2016-12-24T07:37:23.524Z,4.6
2016-12-24T07:38:33.839Z,4.69
2016-12-24T07:39:43.856Z,4.69
2016-12-24T07:40:53.556Z,4.71
2016-12-24T07:42:03.269Z,4.74
2016-12-24T07:43:12.975Z,4.83
2016-12-24T07:44:22.992Z,4.92
2016-12-24T07:45:32.694Z,4.98
2016-12-24T07:46:42.735Z,5.16
2016-12-24T07:47:52.938Z,5.12
2016-12-24T07:49:03.263Z,5.18
2016-12-24T07:50:13.820Z,5.23
2016-12-24T07:51:23.527Z,5.27
2016-12-24T07:52:33.233Z,5.27
2016-12-24T07:53:43.557Z,5.34
2016-12-24T07:54:53.571Z,5.42
2016-12-24T07:56:03.270Z,5.46
2016-12-24T07:57:13.295Z,5.57
2016-12-24T07:58:23.617Z,5.57
2016-12-24T07:59:33.934Z,5.66
2016-12-24T08:00:43.939Z,5.69
2016-12-24T08:01:53.627Z,5.81
2016-12-24T08:03:03.950Z,5.78
2016-12-24T08:04:13.966Z,5.77
2016-12-24T08:05:23.992Z,5.87
2016-12-24T08:06:33.727Z,6.02
2016-12-24T08:07:43.986Z,6.05
2016-12-24T08:08:54.016Z,6.05
2016-12-24T08:10:04.338Z,6.06
2016-12-24T08:11:14.655Z,6.1
2016-12-24T08:12:24.969Z,6.26
2016-12-24T08:13:34.988Z,6.39
2016-12-24T08:14:45.311Z,6.37
2016-12-24T08:15:55.353Z,6.47
2016-12-24T08:17:05.063Z,6.52
2016-12-24T08:18:15.380Z,6.44
2016-12-24T08:19:25.099Z,6.49
2016-12-24T08:20:34.498Z,6.44
2016-12-24T08:21:44.526Z,6.51
2016-12-24T08:22:54.245Z,6.54
2016-12-24T08:24:03.939Z,6.7
2016-12-24T08:25:13.630Z,6.73
2016-12-24T08:26:23.964Z,6.78
2016-12-24T08:27:34.303Z,6.68
2016-12-24T08:28:44.307Z,6.68
2016-12-24T08:29:53.997Z,6.57
2016-12-24T08:31:04.014Z,6.51
2016-12-24T08:32:13.716Z,6.42
2016-12-24T08:33:24.032Z,6.43
2016-12-24T08:34:34.044Z,6.34
2016-12-24T08:35:44.044Z,6.43
2016-12-24T08:36:54.367Z,6.33
2016-12-24T08:38:04.694Z,6.33
2016-12-24T08:39:14.716Z,6.33
2016-12-24T08:40:24.727Z,6.28
2016-12-24T08:41:35.046Z,6.29
2016-12-24T08:42:45.377Z,6.33
2016-12-24T08:43:55.398Z,6.31
2016-12-24T08:45:05.449Z,6.34
2016-12-24T08:46:15.770Z,6.39
2016-12-24T08:47:26.088Z,6.47
2016-12-24T08:48:36.104Z,6.42
2016-12-24T08:49:46.417Z,6.36
2016-12-24T08:50:56.427Z,6.31
2016-12-24T08:52:06.439Z,6.15
2016-12-24T08:53:16.456Z,6.15
2016-12-24T08:54:26.482Z,6.13
2016-12-24T08:55:36.491Z,6.15
2016-12-24T08:56:46.811Z,6.17
2016-12-24T08:57:56.821Z,6.13
2016-12-24T08:59:07.141Z,6.21
2016-12-24T09:00:17.171Z,6.03
2016-12-24T09:01:27.187Z,6.05
2016-12-24T09:02:37.194Z,6
2016-12-24T09:03:47.506Z,5.99
2016-12-24T09:04:57.209Z,5.92
2016-12-24T09:06:07.540Z,6.05
2016-12-24T09:07:17.572Z,6.05
2016-12-24T09:08:27.895Z,6.06
2016-12-24T09:09:37.945Z,6.05
2016-12-24T09:10:47.952Z,5.88
2016-12-24T09:11:57.998Z,5.89
2016-12-24T09:13:08.019Z,5.91
2016-12-24T09:14:18.341Z,5.87
2016-12-24T09:15:28.662Z,5.88
2016-12-24T09:16:39.039Z,5.88
2016-12-24T09:17:50.573Z,5.84
2016-12-24T09:19:00.894Z,5.96
2016-12-24T09:20:11.209Z,6
2016-12-24T09:21:21.567Z,6.06
2016-12-24T09:22:31.262Z,6.05
2016-12-24T09:23:41.584Z,6.17
2016-12-24T09:24:51.601Z,6.29
2016-12-24T09:26:01.939Z,6.34
2016-12-24T09:27:12.259Z,6.34
2016-12-24T09:28:21.681Z,6.42
2016-12-24T09:29:32.012Z,6.46
2016-12-24T09:30:42.047Z,6.39
2016-12-24T09:31:52.057Z,6.4
2016-12-24T09:33:01.453Z,6.43
2016-12-24T09:34:11.454Z,6.39
2016-12-24T09:35:21.804Z,6.4
2016-12-24T09:36:32.138Z,6.26
2016-12-24T09:37:42.160Z,6.28
2016-12-24T09:38:52.507Z,6.31
2016-12-24T09:40:02.520Z,6.26
2016-12-24T09:41:12.870Z,6.25
2016-12-24T09:42:22.588Z,6.29
2016-12-24T09:43:32.899Z,6.18
2016-12-24T09:44:42.934Z,6.24
2016-12-24T09:45:53.268Z,6.29
2016-12-24T09:47:03.611Z,6.29
2016-12-24T09:48:13.620Z,6.37
2016-12-24T09:49:23.327Z,6.43
2016-12-24T09:50:33.662Z,6.51
2016-12-24T09:51:43.669Z,6.51
2016-12-24T09:52:53.688Z,6.67
2016-12-24T09:54:04.003Z,6.79
2016-12-24T09:55:14.038Z,6.79
2016-12-24T09:56:24.369Z,6.91
2016-12-24T09:57:34.390Z,6.93
2016-12-24T09:58:44.396Z,7.08
2016-12-24T09:59:54.473Z,7.19
2016-12-24T10:01:04.509Z,7.47
2016-12-24T10:02:14.833Z,7.71
2016-12-24T10:03:25.158Z,7.77
2016-12-24T10:04:35.171Z,8.04
2016-12-24T10:05:45.484Z,8.17
2016-12-24T10:06:55.825Z,8.39
2016-12-24T10:08:05.851Z,8.42
2016-12-24T10:09:15.552Z,8.46
2016-12-24T10:10:25.900Z,8.4
2016-12-24T10:11:36.243Z,8.49
2016-12-24T10:12:46.572Z,8.44
2016-12-24T10:13:56.604Z,8.49
2016-12-24T10:15:06.307Z,8.67
2016-12-24T10:16:16.637Z,8.79
2016-12-24T10:17:26.652Z,8.95
2016-12-24T10:18:36.667Z,9.08
2016-12-24T10:19:46.681Z,9.27
2016-12-24T10:20:56.389Z,9.42
2016-12-24T10:22:06.401Z,9.63
2016-12-24T10:23:16.712Z,9.72
2016-12-24T10:24:26.788Z,9.8
2016-12-24T10:25:36.818Z,9.75
2016-12-24T10:26:47.171Z,9.72
2016-12-24T10:27:56.877Z,9.74
2016-12-24T10:29:07.455Z,9.66
2016-12-24T10:30:17.551Z,9.55
2016-12-24T10:31:28.037Z,9.52
2016-12-24T10:32:38.059Z,9.41
2016-12-24T10:33:48.132Z,9.32
2016-12-24T10:34:58.471Z,9.26
2016-12-24T10:36:08.793Z,9.29
2016-12-24T10:37:19.137Z,9.23
2016-12-24T10:38:29.485Z,9.38
2016-12-24T10:39:39.806Z,9.35
2016-12-24T10:40:50.135Z,9.26
2016-12-24T10:42:00.152Z,9.2
2016-12-24T10:43:10.689Z,9.26
2016-12-24T10:44:22.348Z,9.3
2016-12-24T10:45:32.381Z,9.24
2016-12-24T10:46:42.757Z,9.34
2016-12-24T10:47:53.101Z,9.27
2016-12-24T10:49:03.525Z,9.32
2016-12-24T10:50:13.550Z,9.41
2016-12-24T10:51:23.898Z,9.55
2016-12-24T10:52:33.919Z,9.5
2016-12-24T10:53:43.986Z,9.44
2016-12-24T10:54:54.411Z,9.44
2016-12-24T10:56:04.788Z,9.41
2016-12-24T10:57:14.801Z,9.38
2016-12-24T10:58:25.327Z,9.2
2016-12-24T10:59:38.162Z,9.27
2016-12-24T11:00:50.077Z,9.29
2016-12-24T11:02:03.536Z,9.3
2016-12-24T11:03:16.624Z,9.42
2016-12-24T11:04:29.025Z,9.53
2016-12-24T11:05:42.687Z,9.53
2016-12-24T11:06:55.082Z,9.55
2016-12-24T11:08:07.759Z,9.66
2016-12-24T11:09:19.954Z,9.77
2016-12-24T11:10:32.965Z,9.7
2016-12-24T11:11:45.601Z,9.77
2016-12-24T11:12:58.078Z,9.77
2016-12-24T11:14:11.336Z,9.74
2016-12-24T11:15:23.784Z,9.78
2016-12-24T11:16:36.836Z,9.77
2016-12-24T11:17:49.614Z,9.84
2016-12-24T11:19:02.908Z,9.8
2016-12-24T11:20:16.955Z,9.82
2016-12-24T11:21:29.130Z,9.92
2016-12-24T11:22:41.056Z,9.8
2016-12-24T11:23:52.548Z,9.82
2016-12-24T11:25:04.850Z,9.88
2016-12-24T11:26:16.305Z,9.9
2016-12-24T11:27:40.912Z,9.85
2016-12-24T11:28:51.247Z,9.88
2016-12-24T11:30:01.292Z,9.96
2016-12-24T11:31:11.004Z,10.03
2016-12-24T11:32:21.370Z,10.13
2016-12-24T11:33:31.702Z,10.11
2016-12-24T11:34:42.050Z,10.1
2016-12-24T11:35:52.053Z,10.02
2016-12-24T11:37:02.086Z,9.85
2016-12-24T11:38:12.100Z,9.85
2016-12-24T11:39:22.191Z,9.89
2016-12-24T11:40:32.260Z,9.81
2016-12-24T11:41:42.317Z,9.82
2016-12-24T11:42:52.366Z,9.78
2016-12-24T11:44:02.741Z,9.84
2016-12-24T11:45:12.529Z,9.8
2016-12-24T11:46:22.940Z,9.72
2016-12-24T11:47:33.310Z,9.75
2016-12-24T11:48:43.706Z,9.84
2016-12-24T11:49:53.750Z,9.75
2016-12-24T11:51:04.379Z,9.78
2016-12-24T11:52:14.410Z,9.71
2016-12-24T11:53:24.795Z,9.59
2016-12-24T11:54:35.146Z,9.64
2016-12-24T11:55:45.467Z,9.63
2016-12-24T11:56:55.980Z,9.59
2016-12-24T11:58:06.310Z,9.59
2016-12-24T11:59:16.334Z,9.5
2016-12-24T12:00:26.676Z,9.44
2016-12-24T12:01:37.035Z,9.38
2016-12-24T12:02:46.767Z,9.19
2016-12-24T12:03:57.155Z,9.24
2016-12-24T12:05:07.502Z,9.16
2016-12-24T12:06:17.857Z,9.01
2016-12-24T12:07:27.899Z,8.98
2016-12-24T12:08:37.967Z,8.79
2016-12-24T12:09:48.347Z,8.79
2016-12-24T12:10:58.678Z,8.8
2016-12-24T12:12:09.049Z,8.71
2016-12-24T12:13:18.759Z,8.79
2016-12-24T12:14:28.789Z,8.62
2016-12-24T12:15:38.545Z,8.64
2016-12-24T12:16:48.243Z,8.67
2016-12-24T12:17:58.577Z,8.6
2016-12-24T12:19:08.920Z,8.61
2016-12-24T12:20:18.969Z,8.49
2016-12-24T12:21:29.335Z,8.57
2016-12-24T12:22:39.692Z,8.44
2016-12-24T12:23:49.427Z,8.44
2016-12-24T12:24:59.456Z,8.44
2016-12-24T12:26:09.185Z,8.46
2016-12-24T12:27:19.219Z,8.47
2016-12-24T12:28:29.551Z,8.43
2016-12-24T12:29:39.568Z,8.46
2016-12-24T12:30:49.593Z,8.6
2016-12-24T12:31:59.944Z,8.46
2016-12-24T12:33:09.977Z,8.62
2016-12-24T12:34:20.345Z,8.58
2016-12-24T12:35:30.070Z,8.67
2016-12-24T12:36:40.087Z,8.65
2016-12-24T12:37:50.430Z,8.76
2016-12-24T12:39:00.776Z,8.92
2016-12-24T12:40:11.118Z,8.8
2016-12-24T12:41:21.148Z,8.79
2016-12-24T12:42:30.249Z,8.67
2016-12-24T12:43:40.286Z,8.64
2016-12-24T12:44:50.623Z,8.67
2016-12-24T12:46:00.028Z,8.72
2016-12-24T12:47:10.383Z,8.71
2016-12-24T12:48:20.463Z,8.69
2016-12-24T12:49:30.500Z,8.83
2016-12-24T12:50:40.535Z,8.74
2016-12-24T12:51:50.260Z,8.85
2016-12-24T12:53:00.609Z,8.85
2016-12-24T12:54:10.973Z,8.89
2016-12-24T12:55:21.321Z,8.94
2016-12-24T12:56:31.665Z,8.85
2016-12-24T12:57:42.032Z,8.8
2016-12-24T12:58:51.780Z,8.79
2016-12-24T13:00:02.152Z,8.77
2016-12-24T13:01:12.200Z,8.74
2016-12-24T13:02:22.562Z,8.74
2016-12-24T13:03:32.901Z,8.68
2016-12-24T13:04:42.955Z,8.71
2016-12-24T13:05:53.019Z,8.57
2016-12-24T13:07:03.355Z,8.58
2016-12-24T13:08:13.726Z,8.49
2016-12-24T13:09:24.071Z,8.43
2016-12-24T13:10:34.127Z,8.47
2016-12-24T13:11:44.177Z,8.44
2016-12-24T13:12:53.894Z,8.5
2016-12-24T13:14:04.487Z,8.46
2016-12-24T13:15:14.859Z,8.52
2016-12-24T13:16:24.939Z,8.39
2016-12-24T13:17:34.996Z,8.28
2016-12-24T13:18:45.388Z,8.16
2016-12-24T13:19:55.456Z,8.17
2016-12-24T13:21:05.511Z,8.17
2016-12-24T13:22:15.903Z,8.11
2016-12-24T13:23:25.648Z,8.17
2016-12-24T13:24:36.026Z,8.16
2016-12-24T13:25:46.043Z,8.19
2016-12-24T13:26:56.093Z,8.16
2016-12-24T13:28:06.153Z,8.14
2016-12-24T13:29:16.506Z,8.13
2016-12-24T13:30:26.603Z,7.96
2016-12-24T13:31:36.944Z,8.04
2016-12-24T13:32:46.992Z,7.92
2016-12-24T13:33:57.346Z,7.85
2016-12-24T13:35:07.381Z,7.93
2016-12-24T13:36:17.119Z,7.88
2016-12-24T13:37:26.536Z,7.86
2016-12-24T13:38:36.892Z,7.82
2016-12-24T13:39:47.258Z,7.71
2016-12-24T13:40:57.314Z,7.73
2016-12-24T13:42:07.367Z,7.67
2016-12-24T13:43:17.737Z,7.67
2016-12-24T13:44:27.783Z,7.59
2016-12-24T13:45:37.510Z,7.61
2016-12-24T13:46:47.532Z,7.64
2016-12-24T13:47:57.954Z,7.58
2016-12-24T13:49:08.287Z,7.61
2016-12-24T13:50:18.666Z,7.54
2016-12-24T13:51:28.685Z,7.58
2016-12-24T13:52:38.720Z,7.51
2016-12-24T13:53:48.742Z,7.49
2016-12-24T13:54:58.803Z,7.48
2016-12-24T13:56:08.874Z,7.39
2016-12-24T13:57:19.211Z,7.47
2016-12-24T13:58:29.257Z,7.34
2016-12-24T13:59:39.291Z,7.34
2016-12-24T14:00:49.054Z,7.36
2016-12-24T14:01:59.413Z,7.34
2016-12-24T14:03:09.436Z,7.34
2016-12-24T14:04:19.784Z,7.27
2016-12-24T14:05:29.803Z,7.27
2016-12-24T14:06:40.181Z,7.16
2016-12-24T14:07:50.203Z,7.05
2016-12-24T14:09:00.224Z,7.12
2016-12-24T14:10:10.273Z,7.09
2016-12-24T14:11:19.675Z,6.98
2016-12-24T14:12:29.730Z,7.12
2016-12-24T14:13:40.089Z,6.9
2016-12-24T14:14:50.434Z,6.97
2016-12-24T14:16:00.787Z,6.95
2016-12-24T14:17:10.804Z,6.95
2016-12-24T14:18:21.164Z,6.97
2016-12-24T14:19:30.604Z,7.03
2016-12-24T14:20:40.958Z,6.97
2016-12-24T14:21:51.334Z,7
2016-12-24T14:23:01.734Z,7
2016-12-24T14:24:11.797Z,6.9
2016-12-24T14:25:22.150Z,6.97
2016-12-24T14:26:31.879Z,6.91
2016-12-24T14:27:42.208Z,6.9
2016-12-24T14:28:52.569Z,6.94
2016-12-24T14:30:02.296Z,6.86
2016-12-24T14:31:12.635Z,6.76
2016-12-24T14:32:22.678Z,6.78
2016-12-24T14:33:32.712Z,6.8
2016-12-24T14:34:43.107Z,6.79
2016-12-24T14:35:52.859Z,6.9
2016-12-24T14:37:02.595Z,6.79
2016-12-24T14:38:12.012Z,6.82
2016-12-24T14:39:22.363Z,6.8
2016-12-24T14:40:32.721Z,6.83
2016-12-24T14:41:43.073Z,6.82
2016-12-24T14:42:53.395Z,6.83
2016-12-24T14:44:03.755Z,6.73
2016-12-24T14:45:13.502Z,6.75
2016-12-24T14:46:23.540Z,6.67
2016-12-24T14:47:33.899Z,6.75
2016-12-24T14:48:44.259Z,6.73
2016-12-24T14:49:54.323Z,6.73
2016-12-24T14:51:04.700Z,6.79
2016-12-24T14:52:14.756Z,6.72
2016-12-24T14:53:24.481Z,6.68
2016-12-24T14:54:34.523Z,6.7
2016-12-24T14:55:43.930Z,6.79
2016-12-24T14:56:53.975Z,6.82
2016-12-24T14:58:04.322Z,6.8
2016-12-24T14:59:14.663Z,6.8
2016-12-24T15:00:25.031Z,6.9
2016-12-24T15:01:35.382Z,6.85
2016-12-24T15:02:45.446Z,6.94
2016-12-24T15:03:55.795Z,6.85
2016-12-24T15:05:05.851Z,6.85
2016-12-24T15:06:15.872Z,6.8
2016-12-24T15:07:26.246Z,6.86
2016-12-24T15:08:35.980Z,6.83
2016-12-24T15:09:45.754Z,6.91
2016-12-24T15:10:56.112Z,6.86
2016-12-24T15:12:06.159Z,6.82
2016-12-24T15:13:16.188Z,6.76
2016-12-24T15:14:26.225Z,6.68
2016-12-24T15:15:35.974Z,6.73
2016-12-24T15:16:46.008Z,6.68
2016-12-24T15:17:56.359Z,6.65
2016-12-24T15:19:06.381Z,6.73
2016-12-24T15:20:16.424Z,6.73
2016-12-24T15:21:26.805Z,6.61
2016-12-24T15:22:37.151Z,6.61
2016-12-24T15:23:47.493Z,6.6
2016-12-24T15:24:57.567Z,6.7
2016-12-24T15:26:07.283Z,6.54
2016-12-24T15:27:16.751Z,6.62
2016-12-24T15:28:26.767Z,6.58
2016-12-24T15:29:36.486Z,6.58
2016-12-24T15:30:46.856Z,6.58
2016-12-24T15:31:56.894Z,6.6
2016-12-24T15:33:07.247Z,6.58
2016-12-24T15:34:17.324Z,6.57
2016-12-24T15:35:27.685Z,6.57
2016-12-24T15:36:37.718Z,6.61
2016-12-24T15:37:48.066Z,6.52
2016-12-24T15:38:57.786Z,6.64
2016-12-24T15:40:07.517Z,6.64
2016-12-24T15:41:17.861Z,6.65
2016-12-24T15:42:28.201Z,6.6
2016-12-24T15:43:38.573Z,6.6
2016-12-24T15:44:48.600Z,6.52
2016-12-24T15:45:58.627Z,6.54
2016-12-24T15:47:08.998Z,6.61
2016-12-24T15:48:19.026Z,6.54
2016-12-24T15:49:29.375Z,6.51
2016-12-24T15:50:39.100Z,6.49
2016-12-24T15:51:48.825Z,6.47
2016-12-24T15:52:58.888Z,6.42
2016-12-24T15:54:08.904Z,6.49
2016-12-24T15:55:18.617Z,6.44
2016-12-24T15:56:28.967Z,6.39
2016-12-24T15:57:39.320Z,6.37
2016-12-24T15:58:49.671Z,6.29
2016-12-24T15:59:59.708Z,6.36
2016-12-24T16:01:10.076Z,6.39
2016-12-24T16:02:20.452Z,6.28
2016-12-24T16:03:30.179Z,6.31
2016-12-24T16:04:40.559Z,6.25
2016-12-24T16:05:50.293Z,6.18
2016-12-24T16:07:00.030Z,6.2
2016-12-24T16:08:10.406Z,6.1